sensor_id;sensor_type;location;lat;lon;timestamp;pressure;altitude;pressure_sealevel;temperature;humidity
32083;BME280;18597;48.328;7.932;2023-05-29T00:00:18;99410.28;;;12.54;100.00
32083;BME280;18597;48.328;7.932;2023-05-29T00:02:47;99414.19;;;12.41;100.00
32083;BME280;18597;48.328;7.932;2023-05-29T00:05:13;99415.50;;;12.28;100.00
32083;BME280;18597;48.328;7.932;2023-05-29T00:07:40;99412.81;;;12.28;100.00
32083;BME280;18597;48.328;7.932;2023-05-29T00:10:08;99409.88;;;12.21;100.00
32083;BME280;18597;48.328;7.932;2023-05-29T00:12:35;99419.06;;;12.18;100.00
32083;BME280;18597;48.328;7.932;2023-05-29T00:15:01;99403.25;;;12.53;100.00
32083;BME280;18597;48.328;7.932;2023-05-29T00:17:29;99404.72;;;12.47;100.00
32083;BME280;18597;48.328;7.932;2023-05-29T00:19:59;99398.97;;;12.60;100.00
32083;BME280;18597;48.328;7.932;2023-05-29T00:22:27;99402.53;;;12.33;100.00
32083;BME280;18597;48.328;7.932;2023-05-29T00:24:53;99400.84;;;12.22;100.00
32083;BME280;18597;48.328;7.932;2023-05-29T00:27:19;99386.47;;;12.23;100.00
32083;BME280;18597;48.328;7.932;2023-05-29T00:29:46;99394.69;;;12.12;100.00
32083;BME280;18597;48.328;7.932;2023-05-29T00:32:12;99397.53;;;12.38;100.00
32083;BME280;18597;48.328;7.932;2023-05-29T00:34:37;99395.47;;;12.59;100.00
32083;BME280;18597;48.328;7.932;2023-05-29T00:37:03;99390.34;;;12.38;100.00
32083;BME280;18597;48.328;7.932;2023-05-29T00:39:29;99398.75;;;12.16;100.00
32083;BME280;18597;48.328;7.932;2023-05-29T00:41:56;99398.41;;;11.91;100.00
32083;BME280;18597;48.328;7.932;2023-05-29T00:44:22;99393.06;;;11.91;100.00
32083;BME280;18597;48.328;7.932;2023-05-29T00:46:51;99395.94;;;11.80;100.00
32083;BME280;18597;48.328;7.932;2023-05-29T00:49:20;99407.41;;;12.10;100.00
32083;BME280;18597;48.328;7.932;2023-05-29T00:51:48;99401.31;;;12.08;100.00
32083;BME280;18597;48.328;7.932;2023-05-29T00:54:21;99403.66;;;11.83;100.00
32083;BME280;18597;48.328;7.932;2023-05-29T00:56:49;99401.38;;;11.79;100.00
32083;BME280;18597;48.328;7.932;2023-05-29T00:59:15;99400.69;;;11.77;100.00
32083;BME280;18597;48.328;7.932;2023-05-29T01:01:42;99398.63;;;11.80;100.00
32083;BME280;18597;48.328;7.932;2023-05-29T01:04:09;99402.38;;;11.97;100.00
32083;BME280;18597;48.328;7.932;2023-05-29T01:06:39;99408.72;;;11.96;100.00
32083;BME280;18597;48.328;7.932;2023-05-29T01:09:05;99406.56;;;12.09;100.00
32083;BME280;18597;48.328;7.932;2023-05-29T01:11:45;99403.38;;;12.23;100.00
32083;BME280;18597;48.328;7.932;2023-05-29T01:14:41;99409.56;;;12.34;100.00
32083;BME280;18597;48.328;7.932;2023-05-29T01:17:22;99408.88;;;12.22;100.00
32083;BME280;18597;48.328;7.932;2023-05-29T01:20:22;99412.81;;;12.28;100.00
32083;BME280;18597;48.328;7.932;2023-05-29T01:29:00;99406.78;;;12.16;100.00
32083;BME280;18597;48.328;7.932;2023-05-29T01:31:28;99409.97;;;11.92;100.00
32083;BME280;18597;48.328;7.932;2023-05-29T01:33:58;99409.81;;;11.93;100.00
32083;BME280;18597;48.328;7.932;2023-05-29T01:36:26;99408.03;;;11.75;100.00
32083;BME280;18597;48.328;7.932;2023-05-29T01:38:55;99415.06;;;11.85;100.00
32083;BME280;18597;48.328;7.932;2023-05-29T01:41:22;99408.97;;;11.93;100.00
32083;BME280;18597;48.328;7.932;2023-05-29T01:43:50;99413.50;;;11.63;100.00
32083;BME280;18597;48.328;7.932;2023-05-29T01:46:16;99413.97;;;11.49;100.00
32083;BME280;18597;48.328;7.932;2023-05-29T01:48:44;99422.94;;;11.77;100.00
32083;BME280;18597;48.328;7.932;2023-05-29T01:51:11;99421.56;;;11.73;100.00
32083;BME280;18597;48.328;7.932;2023-05-29T01:53:39;99423.81;;;11.68;100.00
32083;BME280;18597;48.328;7.932;2023-05-29T01:56:06;99428.72;;;11.63;100.00
32083;BME280;18597;48.328;7.932;2023-05-29T01:58:33;99430.00;;;11.59;100.00
32083;BME280;18597;48.328;7.932;2023-05-29T02:01:01;99429.88;;;11.60;100.00
32083;BME280;18597;48.328;7.932;2023-05-29T02:03:27;99429.72;;;11.62;100.00
32083;BME280;18597;48.328;7.932;2023-05-29T02:05:59;99430.84;;;11.40;100.00
32083;BME280;18597;48.328;7.932;2023-05-29T02:08:25;99427.50;;;11.19;100.00
32083;BME280;18597;48.328;7.932;2023-05-29T02:10:51;99427.06;;;11.23;100.00
32083;BME280;18597;48.328;7.932;2023-05-29T02:13:17;99438.16;;;11.09;100.00
32083;BME280;18597;48.328;7.932;2023-05-29T02:15:44;99434.94;;;10.96;100.00
32083;BME280;18597;48.328;7.932;2023-05-29T02:18:12;99433.06;;;10.87;100.00
32083;BME280;18597;48.328;7.932;2023-05-29T02:20:39;99432.13;;;11.17;100.00
32083;BME280;18597;48.328;7.932;2023-05-29T02:23:04;99418.78;;;11.26;100.00
32083;BME280;18597;48.328;7.932;2023-05-29T02:25:30;99427.19;;;11.31;100.00
32083;BME280;18597;48.328;7.932;2023-05-29T02:27:56;99429.34;;;11.28;100.00
32083;BME280;18597;48.328;7.932;2023-05-29T02:30:22;99432.25;;;11.25;100.00
32083;BME280;18597;48.328;7.932;2023-05-29T02:32:48;99429.47;;;11.26;100.00
32083;BME280;18597;48.328;7.932;2023-05-29T02:35:14;99428.59;;;11.16;100.00
32083;BME280;18597;48.328;7.932;2023-05-29T02:37:41;99426.47;;;10.91;100.00
32083;BME280;18597;48.328;7.932;2023-05-29T02:40:07;99427.03;;;10.84;100.00
32083;BME280;18597;48.328;7.932;2023-05-29T02:42:34;99424.19;;;10.67;100.00
32083;BME280;18597;48.328;7.932;2023-05-29T02:45:00;99425.94;;;10.47;100.00
32083;BME280;18597;48.328;7.932;2023-05-29T02:47:26;99428.72;;;10.36;100.00
32083;BME280;18597;48.328;7.932;2023-05-29T02:49:51;99435.31;;;10.32;100.00
32083;BME280;18597;48.328;7.932;2023-05-29T02:52:17;99427.22;;;10.22;100.00
32083;BME280;18597;48.328;7.932;2023-05-29T02:54:43;99419.75;;;10.16;100.00
32083;BME280;18597;48.328;7.932;2023-05-29T02:57:09;99427.56;;;10.28;100.00
32083;BME280;18597;48.328;7.932;2023-05-29T02:59:35;99416.81;;;10.49;100.00
32083;BME280;18597;48.328;7.932;2023-05-29T03:02:01;99422.28;;;10.48;100.00
32083;BME280;18597;48.328;7.932;2023-05-29T03:04:27;99422.88;;;10.51;100.00
32083;BME280;18597;48.328;7.932;2023-05-29T03:06:53;99424.13;;;10.47;100.00
32083;BME280;18597;48.328;7.932;2023-05-29T03:09:20;99422.16;;;10.49;100.00
32083;BME280;18597;48.328;7.932;2023-05-29T03:11:45;99429.25;;;10.70;100.00
32083;BME280;18597;48.328;7.932;2023-05-29T03:14:13;99423.22;;;10.77;100.00
32083;BME280;18597;48.328;7.932;2023-05-29T03:16:39;99416.19;;;10.76;100.00
32083;BME280;18597;48.328;7.932;2023-05-29T03:19:07;99426.59;;;10.79;100.00
32083;BME280;18597;48.328;7.932;2023-05-29T03:21:33;99417.31;;;10.83;100.00
32083;BME280;18597;48.328;7.932;2023-05-29T03:23:59;99420.69;;;10.76;100.00
32083;BME280;18597;48.328;7.932;2023-05-29T03:26:26;99410.25;;;10.63;100.00
32083;BME280;18597;48.328;7.932;2023-05-29T03:28:52;99412.50;;;10.58;100.00
32083;BME280;18597;48.328;7.932;2023-05-29T03:31:18;99419.41;;;10.70;100.00
32083;BME280;18597;48.328;7.932;2023-05-29T03:33:44;99426.16;;;10.74;100.00
32083;BME280;18597;48.328;7.932;2023-05-29T03:36:11;99421.50;;;10.67;100.00
32083;BME280;18597;48.328;7.932;2023-05-29T03:38:37;99425.78;;;10.39;100.00
32083;BME280;18597;48.328;7.932;2023-05-29T03:41:02;99429.44;;;10.38;100.00
32083;BME280;18597;48.328;7.932;2023-05-29T03:43:28;99429.81;;;10.33;100.00
32083;BME280;18597;48.328;7.932;2023-05-29T03:45:54;99425.22;;;10.14;100.00
32083;BME280;18597;48.328;7.932;2023-05-29T03:48:20;99429.44;;;10.17;100.00
32083;BME280;18597;48.328;7.932;2023-05-29T03:50:46;99432.81;;;10.19;100.00
32083;BME280;18597;48.328;7.932;2023-05-29T03:53:13;99435.63;;;10.48;100.00
32083;BME280;18597;48.328;7.932;2023-05-29T03:55:38;99437.28;;;10.30;100.00
32083;BME280;18597;48.328;7.932;2023-05-29T03:58:04;99439.91;;;10.60;100.00
32083;BME280;18597;48.328;7.932;2023-05-29T04:00:30;99445.09;;;10.52;100.00
32083;BME280;18597;48.328;7.932;2023-05-29T04:02:56;99452.19;;;10.42;100.00
32083;BME280;18597;48.328;7.932;2023-05-29T04:05:22;99451.63;;;10.38;100.00
32083;BME280;18597;48.328;7.932;2023-05-29T04:07:48;99460.03;;;10.34;100.00
32083;BME280;18597;48.328;7.932;2023-05-29T04:10:14;99463.72;;;10.42;100.00
32083;BME280;18597;48.328;7.932;2023-05-29T04:12:39;99456.16;;;10.47;100.00
32083;BME280;18597;48.328;7.932;2023-05-29T04:15:06;99462.81;;;10.53;100.00
32083;BME280;18597;48.328;7.932;2023-05-29T04:17:32;99458.00;;;10.56;100.00
32083;BME280;18597;48.328;7.932;2023-05-29T04:19:58;99462.69;;;10.64;100.00
32083;BME280;18597;48.328;7.932;2023-05-29T04:22:24;99456.53;;;10.73;100.00
32083;BME280;18597;48.328;7.932;2023-05-29T04:24:50;99469.66;;;10.86;100.00
32083;BME280;18597;48.328;7.932;2023-05-29T04:27:16;99464.34;;;10.96;100.00
32083;BME280;18597;48.328;7.932;2023-05-29T04:29:42;99473.91;;;11.08;100.00
32083;BME280;18597;48.328;7.932;2023-05-29T04:32:09;99469.00;;;11.32;100.00
32083;BME280;18597;48.328;7.932;2023-05-29T04:34:37;99475.63;;;11.38;100.00
32083;BME280;18597;48.328;7.932;2023-05-29T04:37:05;99482.41;;;11.52;100.00
32083;BME280;18597;48.328;7.932;2023-05-29T04:39:31;99484.34;;;11.69;100.00
32083;BME280;18597;48.328;7.932;2023-05-29T04:41:57;99495.66;;;11.82;100.00
32083;BME280;18597;48.328;7.932;2023-05-29T04:44:26;99488.84;;;12.07;100.00
32083;BME280;18597;48.328;7.932;2023-05-29T04:46:52;99492.66;;;13.06;100.00
32083;BME280;18597;48.328;7.932;2023-05-29T04:49:19;99488.50;;;15.72;92.83
32083;BME280;18597;48.328;7.932;2023-05-29T04:51:46;99493.06;;;18.15;66.86
32083;BME280;18597;48.328;7.932;2023-05-29T04:54:12;99481.06;;;18.62;60.42
32083;BME280;18597;48.328;7.932;2023-05-29T04:56:38;99491.25;;;18.60;59.15
32083;BME280;18597;48.328;7.932;2023-05-29T04:59:06;99492.94;;;18.61;60.04
32083;BME280;18597;48.328;7.932;2023-05-29T05:01:33;99492.53;;;19.59;55.42
32083;BME280;18597;48.328;7.932;2023-05-29T05:04:00;99505.13;;;21.61;48.35
32083;BME280;18597;48.328;7.932;2023-05-29T05:06:26;99498.19;;;23.62;42.47
32083;BME280;18597;48.328;7.932;2023-05-29T05:08:53;99500.78;;;24.82;39.13
32083;BME280;18597;48.328;7.932;2023-05-29T05:11:19;99507.28;;;26.38;36.27
32083;BME280;18597;48.328;7.932;2023-05-29T05:13:46;99502.91;;;27.64;33.31
32083;BME280;18597;48.328;7.932;2023-05-29T05:16:12;99497.16;;;28.78;30.86
32083;BME280;18597;48.328;7.932;2023-05-29T05:18:39;99491.53;;;29.50;29.79
32083;BME280;18597;48.328;7.932;2023-05-29T05:21:04;99500.81;;;30.62;28.84
32083;BME280;18597;48.328;7.932;2023-05-29T05:23:31;99485.88;;;31.68;26.96
32083;BME280;18597;48.328;7.932;2023-05-29T05:25:57;99487.84;;;32.70;25.80
32083;BME280;18597;48.328;7.932;2023-05-29T05:28:23;99482.88;;;33.57;24.44
32083;BME280;18597;48.328;7.932;2023-05-29T05:30:49;99485.50;;;34.51;23.40
32083;BME280;18597;48.328;7.932;2023-05-29T05:33:15;99475.28;;;35.23;22.51
32083;BME280;18597;48.328;7.932;2023-05-29T05:35:40;99478.03;;;35.84;21.66
32083;BME280;18597;48.328;7.932;2023-05-29T05:38:06;99473.06;;;36.52;20.99
32083;BME280;18597;48.328;7.932;2023-05-29T05:40:33;99475.25;;;37.10;19.95
32083;BME280;18597;48.328;7.932;2023-05-29T05:42:59;99473.59;;;37.86;19.35
32083;BME280;18597;48.328;7.932;2023-05-29T05:45:24;99478.53;;;38.56;18.57
32083;BME280;18597;48.328;7.932;2023-05-29T05:47:50;99480.75;;;39.08;18.31
32083;BME280;18597;48.328;7.932;2023-05-29T05:50:16;99470.72;;;39.64;17.48
32083;BME280;18597;48.328;7.932;2023-05-29T05:52:42;99468.56;;;40.13;17.14
32083;BME280;18597;48.328;7.932;2023-05-29T05:55:08;99480.31;;;40.70;16.77
32083;BME280;18597;48.328;7.932;2023-05-29T05:57:35;99481.91;;;41.18;16.31
32083;BME280;18597;48.328;7.932;2023-05-29T06:00:03;99483.53;;;41.57;15.93
32083;BME280;18597;48.328;7.932;2023-05-29T06:02:35;99477.00;;;42.07;15.79
32083;BME280;18597;48.328;7.932;2023-05-29T06:05:01;99479.72;;;42.37;15.22
32083;BME280;18597;48.328;7.932;2023-05-29T06:07:27;99481.78;;;42.61;15.08
32083;BME280;18597;48.328;7.932;2023-05-29T06:09:53;99478.75;;;42.90;15.21
32083;BME280;18597;48.328;7.932;2023-05-29T06:12:18;99482.53;;;43.19;14.92
32083;BME280;18597;48.328;7.932;2023-05-29T06:14:45;99484.88;;;43.54;14.64
32083;BME280;18597;48.328;7.932;2023-05-29T06:17:10;99483.44;;;43.60;14.17
32083;BME280;18597;48.328;7.932;2023-05-29T06:19:36;99484.69;;;43.74;14.26
32083;BME280;18597;48.328;7.932;2023-05-29T06:22:02;99478.81;;;43.92;14.28
32083;BME280;18597;48.328;7.932;2023-05-29T06:24:28;99478.84;;;44.36;14.13
32083;BME280;18597;48.328;7.932;2023-05-29T06:26:54;99470.56;;;44.27;13.69
32083;BME280;18597;48.328;7.932;2023-05-29T06:29:20;99476.03;;;44.08;13.91
32083;BME280;18597;48.328;7.932;2023-05-29T06:31:45;99475.91;;;44.16;13.84
32083;BME280;18597;48.328;7.932;2023-05-29T06:34:11;99470.66;;;44.74;13.65
32083;BME280;18597;48.328;7.932;2023-05-29T06:36:37;99477.00;;;45.03;13.67
32083;BME280;18597;48.328;7.932;2023-05-29T06:39:04;99474.94;;;45.51;13.58
32083;BME280;18597;48.328;7.932;2023-05-29T06:41:29;99475.47;;;46.11;12.98
32083;BME280;18597;48.328;7.932;2023-05-29T06:43:55;99476.78;;;46.59;12.79
32083;BME280;18597;48.328;7.932;2023-05-29T06:46:21;99480.28;;;46.98;12.25
32083;BME280;18597;48.328;7.932;2023-05-29T06:48:47;99480.72;;;46.55;12.80
32083;BME280;18597;48.328;7.932;2023-05-29T06:51:13;99476.91;;;46.24;12.76
32083;BME280;18597;48.328;7.932;2023-05-29T06:53:39;99476.09;;;46.24;12.89
32083;BME280;18597;48.328;7.932;2023-05-29T06:56:05;99471.88;;;46.14;12.71
32083;BME280;18597;48.328;7.932;2023-05-29T06:58:32;99467.88;;;45.96;13.03
32083;BME280;18597;48.328;7.932;2023-05-29T07:00:59;99474.75;;;45.98;12.92
32083;BME280;18597;48.328;7.932;2023-05-29T07:03:26;99465.84;;;46.15;12.75
32083;BME280;18597;48.328;7.932;2023-05-29T07:05:53;99477.22;;;46.00;12.72
32083;BME280;18597;48.328;7.932;2023-05-29T07:08:19;99467.66;;;45.50;13.04
32083;BME280;18597;48.328;7.932;2023-05-29T07:10:45;99473.09;;;45.07;13.13
32083;BME280;18597;48.328;7.932;2023-05-29T07:13:16;99476.41;;;44.50;13.24
32083;BME280;18597;48.328;7.932;2023-05-29T07:15:42;99480.84;;;43.79;13.77
32083;BME280;18597;48.328;7.932;2023-05-29T07:18:08;99481.34;;;43.08;14.47
32083;BME280;18597;48.328;7.932;2023-05-29T07:20:34;99474.00;;;43.15;14.42
32083;BME280;18597;48.328;7.932;2023-05-29T07:22:59;99481.13;;;43.25;14.24
32083;BME280;18597;48.328;7.932;2023-05-29T07:25:25;99487.75;;;43.69;13.37
32083;BME280;18597;48.328;7.932;2023-05-29T07:27:52;99479.63;;;44.64;13.60
32083;BME280;18597;48.328;7.932;2023-05-29T07:30:17;99487.19;;;44.32;13.65
32083;BME280;18597;48.328;7.932;2023-05-29T07:32:44;99488.09;;;45.11;13.29
32083;BME280;18597;48.328;7.932;2023-05-29T07:35:10;99479.16;;;45.96;12.63
32083;BME280;18597;48.328;7.932;2023-05-29T07:37:35;99476.38;;;45.99;12.63
32083;BME280;18597;48.328;7.932;2023-05-29T07:40:02;99479.00;;;45.88;12.91
32083;BME280;18597;48.328;7.932;2023-05-29T07:42:32;99476.78;;;46.59;12.15
32083;BME280;18597;48.328;7.932;2023-05-29T07:44:58;99482.81;;;47.04;11.87
32083;BME280;18597;48.328;7.932;2023-05-29T07:47:24;99486.47;;;46.58;12.24
32083;BME280;18597;48.328;7.932;2023-05-29T07:49:50;99480.53;;;46.25;12.36
32083;BME280;18597;48.328;7.932;2023-05-29T07:52:16;99484.66;;;46.27;12.68
32083;BME280;18597;48.328;7.932;2023-05-29T07:54:41;99475.78;;;46.71;12.28
32083;BME280;18597;48.328;7.932;2023-05-29T07:57:08;99480.81;;;47.31;11.78
32083;BME280;18597;48.328;7.932;2023-05-29T07:59:36;99483.78;;;47.15;11.81
32083;BME280;18597;48.328;7.932;2023-05-29T08:02:02;99479.78;;;46.93;11.95
32083;BME280;18597;48.328;7.932;2023-05-29T08:04:30;99472.25;;;47.00;12.12
32083;BME280;18597;48.328;7.932;2023-05-29T08:06:56;99474.94;;;47.16;11.84
32083;BME280;18597;48.328;7.932;2023-05-29T08:09:22;99478.47;;;47.36;11.96
32083;BME280;18597;48.328;7.932;2023-05-29T08:11:48;99478.84;;;47.61;11.63
32083;BME280;18597;48.328;7.932;2023-05-29T08:14:14;99468.41;;;46.43;12.28
32083;BME280;18597;48.328;7.932;2023-05-29T08:16:41;99474.22;;;46.73;12.18
32083;BME280;18597;48.328;7.932;2023-05-29T08:19:07;99466.16;;;47.51;11.85
32083;BME280;18597;48.328;7.932;2023-05-29T08:21:34;99463.16;;;47.97;11.45
32083;BME280;18597;48.328;7.932;2023-05-29T08:24:01;99462.94;;;47.53;11.67
32083;BME280;18597;48.328;7.932;2023-05-29T08:26:27;99455.19;;;47.46;11.71
32083;BME280;18597;48.328;7.932;2023-05-29T08:28:53;99451.31;;;47.58;11.53
32083;BME280;18597;48.328;7.932;2023-05-29T08:31:20;99451.50;;;47.42;11.50
32083;BME280;18597;48.328;7.932;2023-05-29T08:33:46;99450.41;;;47.80;11.71
32083;BME280;18597;48.328;7.932;2023-05-29T08:36:12;99451.91;;;46.91;11.94
32083;BME280;18597;48.328;7.932;2023-05-29T08:38:37;99451.53;;;46.93;11.89
32083;BME280;18597;48.328;7.932;2023-05-29T08:41:04;99441.50;;;47.22;12.07
32083;BME280;18597;48.328;7.932;2023-05-29T08:43:32;99447.69;;;47.31;11.87
32083;BME280;18597;48.328;7.932;2023-05-29T08:46:02;99444.16;;;47.38;11.75
32083;BME280;18597;48.328;7.932;2023-05-29T08:48:30;99445.00;;;47.15;11.93
32083;BME280;18597;48.328;7.932;2023-05-29T08:50:58;99445.25;;;46.34;12.55
32083;BME280;18597;48.328;7.932;2023-05-29T08:53:25;99443.75;;;45.63;12.75
32083;BME280;18597;48.328;7.932;2023-05-29T08:55:52;99438.19;;;45.67;13.02
32083;BME280;18597;48.328;7.932;2023-05-29T08:58:20;99443.19;;;46.12;13.00
32083;BME280;18597;48.328;7.932;2023-05-29T09:00:48;99442.50;;;45.99;12.84
32083;BME280;18597;48.328;7.932;2023-05-29T09:03:14;99445.97;;;44.40;13.09
32083;BME280;18597;48.328;7.932;2023-05-29T09:05:41;99440.84;;;43.86;13.60
32083;BME280;18597;48.328;7.932;2023-05-29T09:08:09;99451.88;;;43.66;13.84
32083;BME280;18597;48.328;7.932;2023-05-29T09:10:40;99442.19;;;43.52;13.80
32083;BME280;18597;48.328;7.932;2023-05-29T09:13:06;99440.16;;;41.34;15.59
32083;BME280;18597;48.328;7.932;2023-05-29T09:15:33;99442.88;;;38.53;17.66
32083;BME280;18597;48.328;7.932;2023-05-29T09:17:59;99438.22;;;35.51;20.73
32083;BME280;18597;48.328;7.932;2023-05-29T09:20:26;99451.13;;;33.29;23.33
32083;BME280;18597;48.328;7.932;2023-05-29T09:22:59;99454.09;;;31.45;25.05
32083;BME280;18597;48.328;7.932;2023-05-29T09:25:29;99459.69;;;29.87;27.38
32083;BME280;18597;48.328;7.932;2023-05-29T09:28:02;99461.91;;;28.92;28.83
32083;BME280;18597;48.328;7.932;2023-05-29T09:30:39;99456.09;;;28.33;29.84
32083;BME280;18597;48.328;7.932;2023-05-29T09:33:08;99462.91;;;27.97;30.44
32083;BME280;18597;48.328;7.932;2023-05-29T09:35:37;99467.63;;;27.68;31.31
32083;BME280;18597;48.328;7.932;2023-05-29T09:38:04;99457.06;;;27.48;32.15
32083;BME280;18597;48.328;7.932;2023-05-29T09:40:32;99462.25;;;27.32;32.25
32083;BME280;18597;48.328;7.932;2023-05-29T09:43:16;99466.84;;;27.03;33.38
32083;BME280;18597;48.328;7.932;2023-05-29T09:45:44;99456.50;;;26.94;34.04
32083;BME280;18597;48.328;7.932;2023-05-29T09:48:22;99457.97;;;26.73;34.67
32083;BME280;18597;48.328;7.932;2023-05-29T09:50:49;99458.38;;;26.53;34.06
32083;BME280;18597;48.328;7.932;2023-05-29T09:53:21;99456.34;;;26.48;35.02
32083;BME280;18597;48.328;7.932;2023-05-29T09:55:52;99460.00;;;26.31;34.78
32083;BME280;18597;48.328;7.932;2023-05-29T09:58:18;99456.19;;;26.08;35.02
32083;BME280;18597;48.328;7.932;2023-05-29T10:00:46;99451.53;;;26.09;36.09
32083;BME280;18597;48.328;7.932;2023-05-29T10:03:13;99453.44;;;26.08;35.25
32083;BME280;18597;48.328;7.932;2023-05-29T10:05:41;99436.63;;;26.05;35.51
32083;BME280;18597;48.328;7.932;2023-05-29T10:08:17;99440.56;;;25.97;35.95
32083;BME280;18597;48.328;7.932;2023-05-29T10:10:46;99438.41;;;25.99;35.72
32083;BME280;18597;48.328;7.932;2023-05-29T10:13:14;99445.19;;;25.96;35.82
32083;BME280;18597;48.328;7.932;2023-05-29T10:15:43;99446.03;;;25.97;35.79
32083;BME280;18597;48.328;7.932;2023-05-29T10:18:20;99433.56;;;26.01;35.55
32083;BME280;18597;48.328;7.932;2023-05-29T10:20:50;99443.16;;;25.92;35.76
32083;BME280;18597;48.328;7.932;2023-05-29T10:23:20;99436.56;;;25.69;35.27
32083;BME280;18597;48.328;7.932;2023-05-29T10:25:52;99435.88;;;25.44;35.62
32083;BME280;18597;48.328;7.932;2023-05-29T10:28:21;99428.97;;;25.41;36.11
32083;BME280;18597;48.328;7.932;2023-05-29T10:31:05;99430.72;;;25.24;36.16
32083;BME280;18597;48.328;7.932;2023-05-29T10:34:50;99424.38;;;25.24;36.86
32083;BME280;18597;48.328;7.932;2023-05-29T10:36:36;99432.91;;;25.15;36.14
32083;BME280;18597;48.328;7.932;2023-05-29T10:39:04;99416.41;;;25.22;36.64
32083;BME280;18597;48.328;7.932;2023-05-29T10:41:30;99418.47;;;25.27;36.60
32083;BME280;18597;48.328;7.932;2023-05-29T10:44:00;99419.31;;;25.39;36.87
32083;BME280;18597;48.328;7.932;2023-05-29T10:49:22;99410.97;;;25.64;35.82
32083;BME280;18597;48.328;7.932;2023-05-29T10:51:48;99410.44;;;25.43;36.12
32083;BME280;18597;48.328;7.932;2023-05-29T10:54:15;99407.13;;;25.53;36.47
32083;BME280;18597;48.328;7.932;2023-05-29T10:56:51;99405.53;;;25.76;35.67
32083;BME280;18597;48.328;7.932;2023-05-29T10:59:18;99402.63;;;26.00;36.06
32083;BME280;18597;48.328;7.932;2023-05-29T11:01:44;99402.13;;;26.04;36.17
32083;BME280;18597;48.328;7.932;2023-05-29T11:06:53;99403.31;;;26.19;36.15
32083;BME280;18597;48.328;7.932;2023-05-29T11:09:36;99407.22;;;26.35;34.84
32083;BME280;18597;48.328;7.932;2023-05-29T11:12:24;99401.28;;;26.26;35.56
32083;BME280;18597;48.328;7.932;2023-05-29T11:15:08;99406.88;;;26.20;33.97
32083;BME280;18597;48.328;7.932;2023-05-29T11:20:36;99405.22;;;25.95;35.46
32083;BME280;18597;48.328;7.932;2023-05-29T11:23:05;99408.19;;;25.94;35.58
32083;BME280;18597;48.328;7.932;2023-05-29T11:25:37;99413.28;;;25.79;35.53
32083;BME280;18597;48.328;7.932;2023-05-29T11:28:04;99407.81;;;25.79;35.45
32083;BME280;18597;48.328;7.932;2023-05-29T11:30:44;99396.41;;;25.93;35.30
32083;BME280;18597;48.328;7.932;2023-05-29T11:33:22;99395.00;;;26.03;35.03
32083;BME280;18597;48.328;7.932;2023-05-29T11:35:57;99400.81;;;26.29;35.37
32083;BME280;18597;48.328;7.932;2023-05-29T11:38:25;99387.72;;;26.43;30.52
32083;BME280;18597;48.328;7.932;2023-05-29T11:40:54;99392.72;;;26.58;29.58
32083;BME280;18597;48.328;7.932;2023-05-29T11:43:21;99389.91;;;26.81;28.44
32083;BME280;18597;48.328;7.932;2023-05-29T11:45:47;99386.41;;;26.98;29.40
32083;BME280;18597;48.328;7.932;2023-05-29T11:48:13;99386.34;;;27.21;28.54
32083;BME280;18597;48.328;7.932;2023-05-29T11:50:39;99378.88;;;27.33;27.82
32083;BME280;18597;48.328;7.932;2023-05-29T11:53:07;99375.38;;;27.21;26.94
32083;BME280;18597;48.328;7.932;2023-05-29T11:55:33;99368.28;;;27.08;27.32
32083;BME280;18597;48.328;7.932;2023-05-29T11:58:02;99379.56;;;26.83;27.08
32083;BME280;18597;48.328;7.932;2023-05-29T12:00:33;99377.00;;;26.94;29.14
32083;BME280;18597;48.328;7.932;2023-05-29T12:03:00;99376.06;;;26.88;31.58
32083;BME280;18597;48.328;7.932;2023-05-29T12:05:30;99374.66;;;26.86;32.41
32083;BME280;18597;48.328;7.932;2023-05-29T12:07:57;99387.28;;;26.87;32.53
32083;BME280;18597;48.328;7.932;2023-05-29T12:10:23;99383.06;;;26.96;32.95
32083;BME280;18597;48.328;7.932;2023-05-29T12:12:53;99389.81;;;27.17;29.40
32083;BME280;18597;48.328;7.932;2023-05-29T12:15:19;99375.84;;;27.18;27.68
32083;BME280;18597;48.328;7.932;2023-05-29T12:17:45;99374.34;;;27.10;26.73
32083;BME280;18597;48.328;7.932;2023-05-29T12:20:13;99376.50;;;27.08;25.91
32083;BME280;18597;48.328;7.932;2023-05-29T12:22:41;99387.03;;;27.28;26.72
32083;BME280;18597;48.328;7.932;2023-05-29T12:25:13;99386.19;;;27.28;30.49
32083;BME280;18597;48.328;7.932;2023-05-29T12:27:42;99385.34;;;27.27;31.03
32083;BME280;18597;48.328;7.932;2023-05-29T12:30:13;99378.22;;;27.43;26.26
32083;BME280;18597;48.328;7.932;2023-05-29T12:32:44;99377.44;;;27.59;25.72
32083;BME280;18597;48.328;7.932;2023-05-29T12:35:16;99362.31;;;27.90;26.29
32083;BME280;18597;48.328;7.932;2023-05-29T12:37:48;99374.06;;;27.69;25.57
32083;BME280;18597;48.328;7.932;2023-05-29T12:40:20;99373.88;;;27.92;25.62
32083;BME280;18597;48.328;7.932;2023-05-29T12:42:48;99372.09;;;27.53;25.09
32083;BME280;18597;48.328;7.932;2023-05-29T12:45:15;99371.75;;;27.49;25.39
32083;BME280;18597;48.328;7.932;2023-05-29T12:50:27;99375.47;;;27.43;25.43
32083;BME280;18597;48.328;7.932;2023-05-29T12:52:56;99378.75;;;27.57;25.75
32083;BME280;18597;48.328;7.932;2023-05-29T12:55:23;99362.66;;;27.77;24.80
32083;BME280;18597;48.328;7.932;2023-05-29T12:57:49;99365.66;;;27.76;24.37
32083;BME280;18597;48.328;7.932;2023-05-29T13:00:16;99364.06;;;27.97;24.51
32083;BME280;18597;48.328;7.932;2023-05-29T13:02:42;99366.88;;;28.02;24.17
32083;BME280;18597;48.328;7.932;2023-05-29T13:05:08;99358.47;;;28.08;25.13
32083;BME280;18597;48.328;7.932;2023-05-29T13:07:34;99375.50;;;28.10;24.36
32083;BME280;18597;48.328;7.932;2023-05-29T13:10:00;99360.66;;;28.06;24.91
32083;BME280;18597;48.328;7.932;2023-05-29T13:12:27;99372.41;;;27.68;24.35
32083;BME280;18597;48.328;7.932;2023-05-29T13:14:53;99365.44;;;27.65;25.37
32083;BME280;18597;48.328;7.932;2023-05-29T13:17:21;99369.97;;;27.88;24.20